Time;durP1;ratioP1;P1;durP2;ratioP2;P2;SDS_P1;SDS_P2;PMS_P1;PMS_P2;Temp;Humidity;BMP_temperature;BMP_pressure;BME280_temperature;BME280_humidity;BME280_pressure;Samples;Min_cycle;Max_cycle;Signal;HPM_P1;HPM_P2
2024/03/14 00:00:22;;;;;;;13.33;6.13;;;9.90;98.00;;;;;;4959917;28;20462;-69
2024/03/14 00:02:50;;;;;;;12.63;6.10;;;9.90;98.00;;;;;;4959836;28;20512;-69
2024/03/14 00:05:18;;;;;;;14.43;7.00;;;9.90;98.00;;;;;;4959726;28;20952;-69
2024/03/14 00:07:47;;;;;;;14.63;6.80;;;10.00;98.00;;;;;;4959904;28;20830;-69
2024/03/14 00:10:14;;;;;;;15.43;7.30;;;10.10;98.00;;;;;;4959871;28;20537;-69
2024/03/14 00:12:45;;;;;;;12.33;6.40;;;10.20;98.00;;;;;;4959446;28;20557;-69
2024/03/14 00:15:12;;;;;;;13.00;6.57;;;10.10;98.00;;;;;;4960131;28;20495;-69
2024/03/14 00:17:44;;;;;;;17.50;5.90;;;10.10;98.00;;;;;;4959515;28;20962;-69
2024/03/14 00:20:12;;;;;;;12.57;6.13;;;10.00;98.00;;;;;;4960050;28;20877;-69
2024/03/14 00:22:39;;;;;;;11.53;6.00;;;10.00;98.00;;;;;;4959163;28;20456;-69
2024/03/14 00:25:09;;;;;;;15.47;6.73;;;9.90;98.00;;;;;;4958808;28;20976;-69
2024/03/14 00:27:38;;;;;;;13.17;6.63;;;9.90;98.00;;;;;;4959108;28;20460;-69
2024/03/14 00:30:11;;;;;;;13.67;6.80;;;9.90;98.00;;;;;;4958885;28;20458;-69
2024/03/14 00:32:38;;;;;;;12.27;6.90;;;9.90;98.00;;;;;;4959128;28;20471;-69
2024/03/14 00:35:05;;;;;;;13.13;6.13;;;10.10;98.00;;;;;;4958857;28;20548;-69
2024/03/14 00:37:32;;;;;;;12.50;6.53;;;10.00;98.00;;;;;;4942985;28;20455;-69
2024/03/14 00:39:59;;;;;;;17.37;6.40;;;10.00;98.00;;;;;;4958659;28;20471;-69
2024/03/14 00:42:27;;;;;;;12.50;6.43;;;10.00;98.00;;;;;;4958964;28;20501;-69
2024/03/14 00:44:54;;;;;;;13.00;6.20;;;9.90;98.00;;;;;;4958760;28;20465;-69
2024/03/14 00:47:23;;;;;;;13.13;6.43;;;9.90;98.00;;;;;;4959149;28;20450;-69
2024/03/14 00:49:51;;;;;;;12.93;6.40;;;9.80;98.00;;;;;;4958694;28;20459;-69
2024/03/14 00:52:19;;;;;;;17.20;7.80;;;9.90;98.00;;;;;;4959040;28;20540;-69
2024/03/14 00:54:46;;;;;;;13.80;6.30;;;9.80;98.00;;;;;;4958342;28;20451;-68
2024/03/14 00:57:16;;;;;;;15.70;7.00;;;9.80;98.00;;;;;;4958632;28;20843;-69
2024/03/14 00:59:43;;;;;;;20.17;7.13;;;9.80;98.00;;;;;;4958397;28;20463;-68
2024/03/14 01:02:11;;;;;;;11.60;6.60;;;9.80;98.00;;;;;;4958288;28;20458;-68
2024/03/14 01:04:38;;;;;;;15.33;6.70;;;9.90;98.00;;;;;;4958386;28;20463;-69
2024/03/14 01:07:05;;;;;;;16.20;7.17;;;9.80;98.00;;;;;;4958398;28;20451;-68
2024/03/14 01:09:32;;;;;;;19.10;7.90;;;9.70;98.00;;;;;;4958643;28;20464;-69
2024/03/14 01:12:00;;;;;;;17.47;7.70;;;9.60;98.00;;;;;;4958528;28;20615;-69
2024/03/14 01:14:27;;;;;;;19.23;7.73;;;9.60;98.00;;;;;;4958375;28;20469;-69
2024/03/14 01:16:54;;;;;;;21.27;8.13;;;9.60;98.00;;;;;;4958158;28;20489;-68
2024/03/14 01:19:21;;;;;;;33.20;7.90;;;9.60;98.00;;;;;;4958116;28;20461;-69
2024/03/14 01:21:48;;;;;;;19.97;8.53;;;9.60;98.00;;;;;;4958086;28;20825;-69
2024/03/14 01:24:23;;;;;;;22.37;8.87;;;9.60;98.00;;;;;;4957927;28;20456;-69
2024/03/14 01:26:50;;;;;;;20.47;8.50;;;9.60;98.00;;;;;;4959218;28;20828;-69
2024/03/14 01:29:17;;;;;;;23.30;8.27;;;9.60;98.00;;;;;;4957948;28;20463;-68
2024/03/14 01:31:46;;;;;;;30.03;9.00;;;9.60;98.00;;;;;;4957957;28;20467;-69
2024/03/14 01:34:13;;;;;;;23.97;8.23;;;9.50;98.00;;;;;;4957931;28;20819;-69
2024/03/14 01:36:40;;;;;;;17.43;7.63;;;9.40;98.00;;;;;;4957959;28;20491;-69
2024/03/14 01:39:09;;;;;;;15.87;7.23;;;9.40;98.00;;;;;;4957691;28;20464;-68
2024/03/14 01:41:37;;;;;;;16.37;7.20;;;9.50;98.00;;;;;;4957844;28;20473;-69
2024/03/14 01:44:04;;;;;;;17.03;7.43;;;9.60;98.00;;;;;;4957810;28;20791;-69
2024/03/14 01:46:31;;;;;;;15.13;7.37;;;9.60;98.00;;;;;;4957770;28;20480;-69
2024/03/14 01:48:58;;;;;;;19.70;7.23;;;9.60;98.00;;;;;;5303561;23;20506;-69
2024/03/14 01:51:25;;;;;;;16.83;7.60;;;9.50;98.00;;;;;;4972957;28;20488;-69
2024/03/14 01:53:54;;;;;;;15.47;7.10;;;9.50;98.00;;;;;;4972692;28;20471;-69
2024/03/14 01:56:25;;;;;;;18.23;7.63;;;9.50;98.00;;;;;;4972741;28;21083;-69
2024/03/14 01:58:52;;;;;;;19.07;7.10;;;9.60;98.00;;;;;;4972580;28;20470;-69
2024/03/14 02:01:18;;;;;;;13.33;6.33;;;9.50;98.00;;;;;;4972610;28;20459;-68
2024/03/14 02:03:45;;;;;;;12.00;6.70;;;9.50;98.00;;;;;;4972368;28;20472;-69
2024/03/14 02:06:15;;;;;;;18.97;6.93;;;9.50;98.00;;;;;;4972200;28;20461;-69
2024/03/14 02:08:44;;;;;;;17.50;6.43;;;9.40;98.00;;;;;;4972555;28;20464;-69
2024/03/14 02:11:12;;;;;;;14.30;6.63;;;9.30;98.00;;;;;;4980376;28;20456;-68
2024/03/14 02:13:39;;;;;;;12.60;6.63;;;9.30;98.00;;;;;;4976062;28;20463;-69
2024/03/14 02:16:08;;;;;;;14.43;6.47;;;9.30;98.00;;;;;;4975842;28;20474;-69
2024/03/14 02:18:35;;;;;;;12.73;5.93;;;9.30;98.00;;;;;;4975826;28;20472;-69
2024/03/14 02:21:03;;;;;;;13.77;6.50;;;9.40;98.00;;;;;;4975904;28;20453;-69
2024/03/14 02:23:38;;;;;;;9.90;6.10;;;9.40;98.00;;;;;;4975785;28;20824;-68
2024/03/14 02:26:06;;;;;;;12.03;5.87;;;9.40;98.00;;;;;;4976662;28;20520;-69
2024/03/14 02:28:33;;;;;;;11.80;6.00;;;9.40;98.00;;;;;;4975497;28;20451;-69
2024/03/14 02:31:00;;;;;;;9.73;5.83;;;9.40;98.00;;;;;;4975415;28;20981;-69
2024/03/14 02:33:27;;;;;;;14.70;6.70;;;9.30;98.00;;;;;;4975321;28;20459;-69
2024/03/14 02:35:55;;;;;;;12.43;6.50;;;9.30;98.00;;;;;;4975434;28;20486;-69
2024/03/14 02:38:22;;;;;;;15.27;6.20;;;9.20;98.00;;;;;;4975156;28;20450;-69
2024/03/14 02:40:49;;;;;;;13.90;7.07;;;9.10;98.00;;;;;;4975027;28;20457;-69
2024/03/14 02:43:16;;;;;;;12.53;6.50;;;9.00;98.00;;;;;;4975093;28;20466;-69
2024/03/14 02:45:46;;;;;;;11.80;5.83;;;9.00;98.00;;;;;;4975243;28;20463;-69
2024/03/14 02:48:13;;;;;;;11.17;5.73;;;9.00;98.00;;;;;;4974751;28;20458;-69
2024/03/14 02:50:40;;;;;;;15.27;6.50;;;9.00;98.00;;;;;;4974936;28;20499;-69
2024/03/14 02:53:08;;;;;;;12.07;5.90;;;9.10;98.00;;;;;;4974862;28;20453;-68
2024/03/14 02:55:35;;;;;;;11.70;6.17;;;9.10;98.00;;;;;;4974843;28;20463;-68
2024/03/14 02:58:03;;;;;;;12.17;6.00;;;9.20;98.00;;;;;;4974830;28;20516;-69
2024/03/14 03:00:32;;;;;;;8.73;4.90;;;9.30;98.00;;;;;;4975466;28;20456;-68
2024/03/14 03:03:02;;;;;;;9.13;5.30;;;9.20;98.00;;;;;;4975099;28;20820;-69
2024/03/14 03:05:30;;;;;;;9.30;5.20;;;9.30;98.00;;;;;;4975320;28;20686;-69
2024/03/14 03:07:57;;;;;;;11.33;5.43;;;9.40;98.00;;;;;;4974864;28;20463;-69
2024/03/14 03:10:24;;;;;;;13.17;5.90;;;9.60;98.00;;;;;;4974807;28;20498;-68
2024/03/14 03:12:51;;;;;;;8.93;5.20;;;9.60;98.00;;;;;;4974562;28;20454;-68
2024/03/14 03:15:19;;;;;;;10.00;5.00;;;9.60;98.00;;;;;;4974234;28;20461;-69
2024/03/14 03:17:46;;;;;;;10.53;5.20;;;9.50;98.00;;;;;;4973988;28;20522;-68
2024/03/14 03:20:15;;;;;;;10.07;5.40;;;9.40;98.00;;;;;;4974777;28;20805;-69
2024/03/14 03:25:28;;;;;;;12.17;6.00;;;9.20;98.00;;;;;;4977402;28;20874;-68
2024/03/14 03:27:54;;;;;;;14.00;6.60;;;9.10;98.00;;;;;;4974006;28;20465;-69
2024/03/14 03:30:21;;;;;;;17.63;6.93;;;9.10;98.00;;;;;;4974498;28;20520;-69
2024/03/14 03:32:48;;;;;;;22.73;6.23;;;9.10;98.00;;;;;;4974901;28;20480;-68
2024/03/14 03:35:18;;;;;;;17.60;6.50;;;9.10;98.00;;;;;;4974519;28;20547;-69
2024/03/14 03:37:44;;;;;;;19.20;6.37;;;9.00;98.00;;;;;;4958742;28;20479;-69
2024/03/14 03:40:15;;;;;;;13.60;6.03;;;9.00;98.00;;;;;;4974353;28;20975;-68
2024/03/14 03:42:41;;;;;;;10.20;5.83;;;9.00;98.00;;;;;;4975061;28;20464;-69
2024/03/14 03:45:10;;;;;;;12.33;5.93;;;8.90;98.00;;;;;;4974277;28;20566;-68
2024/03/14 03:47:36;;;;;;;12.83;6.03;;;9.00;98.00;;;;;;4974856;28;20458;-69
2024/03/14 03:50:06;;;;;;;10.87;6.00;;;9.00;98.00;;;;;;4973800;28;20528;-69
2024/03/14 03:52:33;;;;;;;12.47;6.07;;;9.00;98.00;;;;;;4975011;28;20449;-68
2024/03/14 03:55:00;;;;;;;12.17;5.80;;;9.00;98.00;;;;;;4974462;28;20554;-68
2024/03/14 03:57:30;;;;;;;9.67;5.57;;;8.90;98.00;;;;;;4974318;28;20877;-69
2024/03/14 03:59:57;;;;;;;10.87;5.40;;;8.80;98.00;;;;;;4965001;28;20729;-68
2024/03/14 04:02:23;;;;;;;14.30;5.90;;;8.80;98.00;;;;;;4955219;28;20946;-68
2024/03/14 04:04:50;;;;;;;10.23;5.50;;;8.80;98.00;;;;;;4955104;28;20464;-68
2024/03/14 04:07:19;;;;;;;10.83;5.40;;;8.90;98.00;;;;;;4955603;28;20469;-69
2024/03/14 04:09:49;;;;;;;12.30;6.07;;;8.90;98.00;;;;;;4954930;28;20561;-68
2024/03/14 04:12:17;;;;;;;12.53;6.07;;;8.80;98.00;;;;;;4955641;28;20462;-68
2024/03/14 04:14:44;;;;;;;12.73;6.00;;;8.70;98.00;;;;;;4954039;28;20555;-69
2024/03/14 04:17:11;;;;;;;12.10;6.27;;;8.70;98.00;;;;;;4954590;28;20720;-69
2024/03/14 04:19:39;;;;;;;11.67;5.90;;;8.70;98.00;;;;;;4954909;28;20465;-69
2024/03/14 04:22:06;;;;;;;10.77;5.70;;;8.80;98.00;;;;;;4954910;28;20457;-68
2024/03/14 04:24:35;;;;;;;13.03;6.10;;;8.90;98.00;;;;;;4954927;28;20487;-68
2024/03/14 04:27:05;;;;;;;10.90;6.00;;;8.80;98.00;;;;;;4939062;28;20848;-69
2024/03/14 04:29:32;;;;;;;10.57;5.50;;;8.80;98.00;;;;;;4958666;28;20454;-69
2024/03/14 04:31:59;;;;;;;11.80;6.00;;;8.80;98.00;;;;;;4958047;28;20471;-68
2024/03/14 04:34:26;;;;;;;11.50;6.00;;;8.90;98.00;;;;;;4958328;28;20981;-69
2024/03/14 04:36:53;;;;;;;9.70;5.00;;;8.90;98.00;;;;;;4958282;28;20485;-69
2024/03/14 04:39:20;;;;;;;10.33;5.33;;;8.80;98.00;;;;;;4958105;28;20465;-68
2024/03/14 04:41:52;;;;;;;10.73;5.37;;;8.80;98.00;;;;;;4958081;28;20459;-69
2024/03/14 04:44:19;;;;;;;10.83;5.70;;;8.80;98.00;;;;;;4958057;28;20466;-69
2024/03/14 04:46:47;;;;;;;11.77;5.57;;;8.80;98.00;;;;;;4958107;28;20497;-68
2024/03/14 04:49:14;;;;;;;12.20;6.67;;;8.70;98.00;;;;;;4957473;28;20489;-69
2024/03/14 04:51:40;;;;;;;12.83;5.70;;;8.70;98.00;;;;;;4957859;28;20472;-69
2024/03/14 04:54:07;;;;;;;10.47;5.17;;;8.70;98.00;;;;;;4957578;28;20467;-69
2024/03/14 04:56:35;;;;;;;11.17;5.30;;;8.70;98.00;;;;;;4957740;28;20481;-68
2024/03/14 04:59:03;;;;;;;13.63;5.43;;;8.60;98.00;;;;;;4957981;28;20464;-68
2024/03/14 05:01:30;;;;;;;8.63;4.97;;;8.60;98.00;;;;;;4957715;28;20494;-69
2024/03/14 05:03:58;;;;;;;15.50;5.83;;;8.40;98.00;;;;;;4957661;28;20504;-69
2024/03/14 05:06:25;;;;;;;11.97;5.90;;;8.30;98.00;;;;;;4957661;28;20532;-68
2024/03/14 05:08:52;;;;;;;13.40;5.67;;;8.40;98.00;;;;;;4957735;28;20480;-68
2024/03/14 05:11:19;;;;;;;11.17;5.40;;;8.40;98.00;;;;;;4957607;28;20808;-69
2024/03/14 05:13:49;;;;;;;13.53;5.77;;;8.40;98.00;;;;;;4957707;28;20829;-68
2024/03/14 05:16:16;;;;;;;13.43;6.00;;;8.50;98.00;;;;;;4957439;28;20529;-68
2024/03/14 05:18:44;;;;;;;11.50;5.53;;;8.50;98.00;;;;;;4957392;28;20460;-69
2024/03/14 05:21:11;;;;;;;10.87;5.50;;;8.50;98.00;;;;;;4957477;28;20473;-68
2024/03/14 05:23:38;;;;;;;10.87;5.40;;;8.40;98.00;;;;;;4957428;28;20494;-69
2024/03/14 05:26:07;;;;;;;10.07;5.43;;;8.50;98.00;;;;;;4957261;28;20463;-68
2024/03/14 05:28:35;;;;;;;14.77;6.70;;;8.40;98.00;;;;;;4957093;28;20512;-69
2024/03/14 05:31:02;;;;;;;13.93;6.47;;;8.40;98.00;;;;;;4957353;28;20458;-68
2024/03/14 05:33:30;;;;;;;10.80;6.37;;;8.40;98.00;;;;;;4957215;28;20459;-68
2024/03/14 05:35:57;;;;;;;9.50;5.30;;;8.40;98.00;;;;;;4956977;28;20462;-69
2024/03/14 05:38:24;;;;;;;12.73;6.17;;;8.40;98.00;;;;;;4956862;28;20493;-69
2024/03/14 05:40:54;;;;;;;12.20;6.40;;;8.30;98.00;;;;;;4956071;28;20462;-69
2024/03/14 05:43:21;;;;;;;9.67;5.40;;;8.30;98.00;;;;;;4957380;28;20469;-69
2024/03/14 05:45:48;;;;;;;10.63;5.60;;;8.30;98.00;;;;;;4956968;28;20453;-69
2024/03/14 05:48:16;;;;;;;9.90;5.20;;;8.20;98.00;;;;;;4957106;28;20512;-69
2024/03/14 05:50:44;;;;;;;10.30;5.30;;;8.20;98.00;;;;;;4957048;28;20953;-68
2024/03/14 05:53:11;;;;;;;10.90;5.50;;;8.20;98.00;;;;;;4957104;28;20570;-69
2024/03/14 05:55:38;;;;;;;11.30;5.80;;;8.30;98.00;;;;;;4957175;28;20464;-69
2024/03/14 05:58:06;;;;;;;11.50;5.67;;;8.30;98.00;;;;;;4956657;28;20489;-68
2024/03/14 06:00:33;;;;;;;10.97;5.87;;;8.30;98.00;;;;;;4956972;28;20463;-68
2024/03/14 06:03:01;;;;;;;10.30;5.23;;;8.40;98.00;;;;;;4956677;28;20976;-69
2024/03/14 06:05:30;;;;;;;12.13;5.60;;;8.40;98.00;;;;;;4956995;28;20610;-69
2024/03/14 06:07:58;;;;;;;10.30;5.60;;;8.40;98.00;;;;;;4956821;28;20463;-69
2024/03/14 06:10:25;;;;;;;10.00;5.40;;;8.40;98.00;;;;;;4956549;28;20458;-69
2024/03/14 06:12:52;;;;;;;11.90;5.73;;;8.30;98.00;;;;;;4956612;28;20461;-68
2024/03/14 06:15:19;;;;;;;11.57;5.80;;;8.40;98.00;;;;;;4957253;28;20963;-69
2024/03/14 06:17:50;;;;;;;9.90;5.50;;;8.50;98.00;;;;;;4956923;28;20571;-68
2024/03/14 06:20:18;;;;;;;11.33;5.93;;;8.50;98.00;;;;;;4957370;28;20459;-68
2024/03/14 06:22:45;;;;;;;12.90;5.50;;;8.50;98.00;;;;;;4956808;28;20882;-68
2024/03/14 06:25:15;;;;;;;12.63;5.93;;;8.50;98.00;;;;;;4956767;28;20463;-68
2024/03/14 06:27:42;;;;;;;11.10;5.50;;;8.40;98.00;;;;;;4956856;28;20512;-69
2024/03/14 06:30:11;;;;;;;11.20;5.27;;;8.30;98.00;;;;;;4956004;28;20449;-69
2024/03/14 06:32:38;;;;;;;10.73;5.37;;;8.30;98.00;;;;;;4957144;28;20467;-68
2024/03/14 06:35:08;;;;;;;10.93;5.87;;;8.30;98.00;;;;;;4956901;28;20485;-68
2024/03/14 06:37:36;;;;;;;11.90;5.43;;;8.40;98.00;;;;;;4957136;28;20495;-69
2024/03/14 06:40:05;;;;;;;10.17;5.40;;;8.40;98.00;;;;;;4956824;28;20468;-69
2024/03/14 06:42:32;;;;;;;13.87;5.90;;;8.50;98.00;;;;;;4956883;28;20494;-69
2024/03/14 06:45:02;;;;;;;12.40;5.50;;;8.60;98.00;;;;;;4956510;28;20470;-69
2024/03/14 06:47:30;;;;;;;10.00;5.67;;;8.60;98.00;;;;;;4956958;28;20534;-68
2024/03/14 06:49:58;;;;;;;12.23;5.53;;;8.70;98.00;;;;;;4956578;28;20868;-69
2024/03/14 06:52:25;;;;;;;10.20;5.20;;;8.60;98.00;;;;;;4956833;28;20465;-69
2024/03/14 06:54:54;;;;;;;8.70;5.07;;;8.60;98.00;;;;;;4956685;28;20457;-69
2024/03/14 06:57:23;;;;;;;10.57;5.43;;;8.70;98.00;;;;;;4956626;28;20489;-69
2024/03/14 06:59:52;;;;;;;12.80;6.30;;;8.90;98.00;;;;;;4956699;28;20462;-77
2024/03/14 07:02:19;;;;;;;13.30;6.43;;;8.90;98.00;;;;;;4956594;28;20457;-77
2024/03/14 07:04:47;;;;;;;11.60;6.00;;;9.10;98.00;;;;;;4956466;28;20805;-78
2024/03/14 07:07:16;;;;;;;9.40;5.00;;;9.10;98.00;;;;;;4956438;28;20540;-77
2024/03/14 07:09:45;;;;;;;13.43;6.17;;;9.10;98.00;;;;;;4956427;28;20459;-77
2024/03/14 07:12:12;;;;;;;9.33;5.50;;;9.10;98.00;;;;;;4956345;28;20466;-77
2024/03/14 07:14:42;;;;;;;12.00;6.10;;;9.20;98.00;;;;;;4956026;28;20463;-77
2024/03/14 07:17:09;;;;;;;11.97;6.30;;;9.30;98.00;;;;;;4940215;28;20491;-77
2024/03/14 07:19:38;;;;;;;12.23;5.80;;;9.40;98.00;;;;;;4955940;28;20825;-75
2024/03/14 07:22:05;;;;;;;11.10;5.20;;;9.60;98.00;;;;;;4956596;28;20850;-75
2024/03/14 07:24:32;;;;;;;13.43;6.83;;;9.60;98.00;;;;;;4956236;28;20457;-75
2024/03/14 07:27:00;;;;;;;16.27;6.63;;;9.70;98.00;;;;;;4956256;28;20552;-75
2024/03/14 07:29:28;;;;;;;13.03;5.90;;;9.80;98.00;;;;;;4955971;28;20536;-75
2024/03/14 07:31:56;;;;;;;10.33;5.57;;;10.00;98.00;;;;;;4956565;28;20450;-75
2024/03/14 07:34:25;;;;;;;11.17;6.20;;;10.10;98.00;;;;;;4956293;28;20472;-75
2024/03/14 07:36:52;;;;;;;12.57;6.47;;;10.10;98.00;;;;;;4956756;28;20459;-75
2024/03/14 07:39:25;;;;;;;11.57;6.43;;;10.10;98.00;;;;;;4956393;28;20491;-75
2024/03/14 07:41:53;;;;;;;14.90;6.50;;;10.20;98.00;;;;;;4957622;28;20456;-75
2024/03/14 07:44:21;;;;;;;13.93;6.90;;;10.20;98.00;;;;;;4956465;28;20941;-75
2024/03/14 07:46:48;;;;;;;14.23;7.20;;;10.40;98.00;;;;;;4955918;28;20458;-74
2024/03/14 07:49:15;;;;;;;14.60;7.00;;;10.30;98.00;;;;;;4955328;28;20552;-75
2024/03/14 07:51:42;;;;;;;13.57;6.70;;;10.10;98.00;;;;;;4955683;28;20468;-74
2024/03/14 07:54:11;;;;;;;12.63;6.43;;;9.90;98.00;;;;;;4955895;28;20519;-75
2024/03/14 07:56:38;;;;;;;12.43;6.30;;;9.90;98.00;;;;;;4956014;28;20465;-74
2024/03/14 07:59:06;;;;;;;12.70;6.20;;;9.90;98.00;;;;;;4955513;28;20492;-74
2024/03/14 08:01:33;;;;;;;12.83;6.20;;;10.20;98.00;;;;;;4955846;28;20463;-74
2024/03/14 08:04:00;;;;;;;13.80;6.33;;;10.20;98.00;;;;;;4958574;28;20516;-74
2024/03/14 08:06:30;;;;;;;11.37;6.30;;;10.20;98.00;;;;;;4959591;28;20472;-74
2024/03/14 08:08:58;;;;;;;14.17;6.60;;;10.20;98.00;;;;;;4959681;28;20453;-75
2024/03/14 08:11:25;;;;;;;12.07;5.53;;;10.20;98.00;;;;;;4959462;28;21027;-74
2024/03/14 08:13:58;;;;;;;13.10;6.90;;;10.20;98.00;;;;;;4958267;28;20487;-74
2024/03/14 08:16:25;;;;;;;11.90;5.57;;;10.30;98.00;;;;;;4959413;28;20475;-75
2024/03/14 08:18:52;;;;;;;10.03;5.10;;;10.30;98.00;;;;;;4959144;28;20487;-74
2024/03/14 08:21:22;;;;;;;9.60;5.27;;;10.50;98.00;;;;;;4959302;28;20459;-75
2024/03/14 08:23:49;;;;;;;9.90;5.30;;;10.60;98.00;;;;;;4959375;28;20482;-75
2024/03/14 08:26:17;;;;;;;11.83;4.90;;;10.80;98.00;;;;;;4958990;28;20460;-75
2024/03/14 08:28:45;;;;;;;9.43;5.20;;;11.00;98.00;;;;;;4958572;28;20495;-75
2024/03/14 08:31:15;;;;;;;8.47;5.23;;;11.00;98.00;;;;;;4959224;28;20869;-69
2024/03/14 08:33:44;;;;;;;10.17;5.13;;;11.00;98.00;;;;;;4959437;28;20471;-75
2024/03/14 08:36:21;;;;;;;;;;;;;;;;;;;;;
2024/03/14 08:40:24;;;;;;;9.03;4.60;;;11.40;98.00;;;;;;5123588;27;20631;-91
2024/03/14 08:42:52;;;;;;;12.90;5.57;;;11.80;98.00;;;;;;5088980;28;20984;-89
2024/03/14 08:45:20;;;;;;;10.80;5.60;;;12.10;98.00;;;;;;5105262;28;20962;-90
2024/03/14 08:47:47;;;;;;;13.47;5.60;;;12.10;98.00;;;;;;5103815;28;20474;-89
2024/03/14 08:50:15;;;;;;;12.53;5.20;;;12.10;98.00;;;;;;5093002;28;20449;-90
2024/03/14 08:52:42;;;;;;;9.40;5.20;;;12.00;98.00;;;;;;5084433;28;20455;-90
2024/03/14 08:58:03;;;;;;;10.20;5.30;;;11.80;98.00;;;;;;5170388;27;20310;-73
2024/03/14 09:00:31;;;;;;;8.53;4.80;;;11.80;98.00;;;;;;5128596;28;20554;-74
2024/03/14 09:03:00;;;;;;;9.30;5.20;;;11.90;98.00;;;;;;5111975;28;20887;-73
2024/03/14 09:05:29;;;;;;;9.03;5.20;;;11.90;98.00;;;;;;5112204;28;20509;-73
2024/03/14 09:07:56;;;;;;;9.80;5.50;;;11.90;98.00;;;;;;5111846;28;20967;-73
2024/03/14 09:10:25;;;;;;;10.60;5.53;;;11.90;98.00;;;;;;5110952;28;20487;-74
2024/03/14 09:12:53;;;;;;;10.13;5.10;;;11.90;98.00;;;;;;5111063;28;20995;-73
2024/03/14 09:15:20;;;;;;;11.90;6.03;;;12.00;98.00;;;;;;5111037;28;20482;-73
2024/03/14 09:17:48;;;;;;;12.27;5.70;;;12.10;98.00;;;;;;5111668;28;21024;-73
2024/03/14 09:20:16;;;;;;;9.93;5.10;;;12.20;98.00;;;;;;5112038;28;20536;-74
2024/03/14 09:22:44;;;;;;;9.00;5.10;;;12.40;98.00;;;;;;5111944;28;20589;-74
2024/03/14 09:25:14;;;;;;;8.00;4.90;;;12.60;98.00;;;;;;5111651;28;21079;-74
2024/03/14 09:27:42;;;;;;;8.90;5.00;;;12.90;98.00;;;;;;5112155;28;20443;-74
2024/03/14 09:30:09;;;;;;;13.20;5.70;;;13.10;98.00;;;;;;5111940;28;20447;-73
2024/03/14 09:32:37;;;;;;;8.70;4.33;;;13.20;98.00;;;;;;5111825;28;20443;-73
2024/03/14 09:35:07;;;;;;;9.90;5.07;;;13.30;98.00;;;;;;5111689;28;20508;-75
2024/03/14 09:37:34;;;;;;;10.37;5.43;;;13.40;98.00;;;;;;5112057;28;20496;-74
2024/03/14 09:40:05;;;;;;;8.63;5.00;;;13.50;98.00;;;;;;5111829;28;20458;-73
2024/03/14 09:42:33;;;;;;;9.57;5.00;;;13.50;98.00;;;;;;5112494;28;20556;-73
2024/03/14 09:45:01;;;;;;;8.70;5.00;;;13.70;98.00;;;;;;5111586;28;20462;-75
2024/03/14 09:47:30;;;;;;;8.40;5.17;;;13.90;98.00;;;;;;5111395;28;20448;-74
2024/03/14 09:49:57;;;;;;;8.80;4.77;;;14.00;98.00;;;;;;5111230;28;20459;-74
2024/03/14 09:52:24;;;;;;;8.70;5.23;;;14.20;98.00;;;;;;5111132;28;20452;-73
2024/03/14 09:54:51;;;;;;;8.73;4.40;;;14.30;98.00;;;;;;5111081;28;20454;-75
2024/03/14 09:57:21;;;;;;;8.33;4.60;;;14.50;98.00;;;;;;5110905;28;20482;-74
2024/03/14 09:59:49;;;;;;;7.43;4.47;;;14.60;98.00;;;;;;5111224;28;20505;-75
2024/03/14 10:02:17;;;;;;;9.57;4.93;;;14.60;98.00;;;;;;5111185;28;20448;-74
2024/03/14 10:04:44;;;;;;;11.50;4.80;;;14.70;98.00;;;;;;5110692;28;20454;-75
2024/03/14 10:07:11;;;;;;;7.23;4.77;;;14.70;98.00;;;;;;5110440;28;20454;-74
2024/03/14 10:09:39;;;;;;;6.27;4.17;;;14.70;98.00;;;;;;5096826;28;20457;-73
2024/03/14 10:12:07;;;;;;;7.90;4.70;;;14.70;98.00;;;;;;5097141;28;20805;-74
2024/03/14 10:14:34;;;;;;;10.40;4.77;;;14.80;98.00;;;;;;5097005;28;20457;-76
2024/03/14 10:17:02;;;;;;;7.60;4.40;;;14.80;98.00;;;;;;5097106;28;20476;-73
2024/03/14 10:19:30;;;;;;;7.60;4.77;;;14.90;98.00;;;;;;5096977;28;20458;-76
2024/03/14 10:21:58;;;;;;;8.60;4.97;;;15.10;98.00;;;;;;5097148;28;20549;-77
2024/03/14 10:24:27;;;;;;;8.07;4.60;;;15.30;98.00;;;;;;5097011;28;20485;-74
2024/03/14 10:26:55;;;;;;;5.80;4.20;;;15.50;98.00;;;;;;5097118;28;20490;-73
2024/03/14 10:29:23;;;;;;;7.53;4.87;;;15.70;98.00;;;;;;5097001;28;20514;-74
2024/03/14 10:31:52;;;;;;;6.70;4.40;;;15.90;98.00;;;;;;5096849;28;20451;-74
2024/03/14 10:34:20;;;;;;;7.77;4.37;;;16.10;98.00;;;;;;5096356;28;20457;-74
2024/03/14 10:36:51;;;;;;;9.23;4.67;;;16.30;98.00;;;;;;5096413;28;20899;-74
2024/03/14 10:39:18;;;;;;;6.27;4.10;;;16.50;98.00;;;;;;5097124;28;20519;-74
2024/03/14 10:41:48;;;;;;;7.07;4.00;;;16.70;98.00;;;;;;5095934;28;20455;-74
2024/03/14 10:44:16;;;;;;;6.50;3.77;;;16.90;98.00;;;;;;5096491;28;20542;-74
2024/03/14 10:46:44;;;;;;;6.20;3.90;;;17.00;98.00;;;;;;5096195;28;20539;-75
2024/03/14 10:49:14;;;;;;;9.87;3.10;;;17.10;98.00;;;;;;5096604;28;20443;-74
2024/03/14 10:51:42;;;;;;;6.30;3.93;;;17.10;98.00;;;;;;5096853;28;20443;-74
2024/03/14 10:54:09;;;;;;;5.10;3.50;;;17.30;98.00;;;;;;5096335;28;20451;-76
2024/03/14 10:56:37;;;;;;;5.07;3.17;;;17.30;98.00;;;;;;5096514;28;20487;-76
2024/03/14 10:59:04;;;;;;;6.37;3.50;;;17.30;98.00;;;;;;5096222;28;20504;-75
2024/03/14 11:01:31;;;;;;;6.30;3.70;;;17.40;98.00;;;;;;5096476;28;20450;-75
2024/03/14 11:03:59;;;;;;;5.93;3.37;;;17.40;98.00;;;;;;5096333;28;20529;-75
2024/03/14 11:06:26;;;;;;;5.13;3.50;;;17.40;98.00;;;;;;5096366;28;20955;-76
2024/03/14 11:08:54;;;;;;;4.30;3.00;;;17.40;98.00;;;;;;5096157;28;20464;-76
2024/03/14 11:11:21;;;;;;;5.10;3.43;;;17.40;98.00;;;;;;5096296;28;20454;-76
2024/03/14 11:13:50;;;;;;;4.50;2.90;;;17.40;98.00;;;;;;5095653;28;20459;-76
2024/03/14 11:16:17;;;;;;;4.50;2.80;;;17.40;98.00;;;;;;5096252;28;20443;-75
2024/03/14 11:18:45;;;;;;;4.97;3.00;;;17.50;98.00;;;;;;5096068;28;20451;-75
2024/03/14 11:21:13;;;;;;;4.07;3.03;;;17.60;98.00;;;;;;5095387;28;20496;-74
2024/03/14 11:23:40;;;;;;;4.43;2.80;;;17.50;98.00;;;;;;5095951;28;20459;-76
2024/03/14 11:26:07;;;;;;;9.80;4.90;;;17.70;98.00;;;;;;5095336;28;20458;-76
2024/03/14 11:28:37;;;;;;;5.43;3.40;;;17.80;98.00;;;;;;5096239;28;20509;-76
2024/03/14 11:31:04;;;;;;;4.10;2.67;;;18.00;98.00;;;;;;5096158;28;20481;-75
2024/03/14 11:33:32;;;;;;;3.70;2.60;;;18.20;98.00;;;;;;5095440;28;20818;-76
2024/03/14 11:35:59;;;;;;;2.70;2.30;;;18.40;98.00;;;;;;5095447;28;20443;-74
2024/03/14 11:38:28;;;;;;;4.27;2.67;;;18.60;98.00;;;;;;5095746;28;20483;-76
2024/03/14 11:40:58;;;;;;;2.90;2.30;;;18.80;98.00;;;;;;5095854;28;20450;-74
2024/03/14 11:43:26;;;;;;;6.10;2.40;;;19.00;98.00;;;;;;5096138;28;20479;-75
2024/03/14 11:45:57;;;;;;;3.30;2.23;;;19.30;98.00;;;;;;5095285;28;20855;-76
2024/03/14 11:48:28;;;;;;;7.30;4.10;;;19.50;98.00;;;;;;5095552;28;20439;-76
2024/03/14 11:50:56;;;;;;;4.10;2.70;;;19.80;98.00;;;;;;5095474;28;20458;-75
2024/03/14 11:53:31;;;;;;;3.73;2.00;;;19.80;98.00;;;;;;5095586;28;20450;-75
2024/03/14 11:55:59;;;;;;;2.57;2.03;;;20.10;98.00;;;;;;5096192;28;20455;-76
2024/03/14 11:58:26;;;;;;;2.67;2.20;;;20.20;98.00;;;;;;5095001;28;20898;-76
2024/03/14 12:00:54;;;;;;;3.00;2.50;;;20.50;98.00;;;;;;5094972;28;20494;-74
2024/03/14 12:03:22;;;;;;;3.73;2.47;;;21.00;98.00;;;;;;5095196;28;20447;-74
2024/03/14 12:05:51;;;;;;;3.40;2.43;;;21.30;98.00;;;;;;5095019;28;20490;-74
2024/03/14 12:08:19;;;;;;;5.43;2.13;;;21.20;98.00;;;;;;5094715;28;20448;-75
2024/03/14 12:10:46;;;;;;;2.50;1.97;;;21.20;98.00;;;;;;5094831;28;20455;-74
2024/03/14 12:13:14;;;;;;;2.70;2.30;;;21.20;98.00;;;;;;5094633;28;20451;-75
2024/03/14 12:15:42;;;;;;;2.90;2.23;;;21.00;98.00;;;;;;5094939;28;20486;-75
2024/03/14 12:18:13;;;;;;;2.70;2.20;;;20.80;98.00;;;;;;5094618;28;20566;-73
2024/03/14 12:20:48;;;;;;;3.10;2.40;;;20.80;98.00;;;;;;5094795;28;20948;-75
2024/03/14 12:23:15;;;;;;;2.40;2.00;;;20.60;98.00;;;;;;5093791;28;20882;-74
2024/03/14 12:25:43;;;;;;;3.10;2.27;;;20.60;98.00;;;;;;5094675;28;20454;-74
2024/03/14 12:28:10;;;;;;;2.87;2.00;;;20.60;98.00;;;;;;5094828;28;20447;-75
2024/03/14 12:30:42;;;;;;;1.80;1.60;;;20.60;98.00;;;;;;5094202;28;20494;-74
2024/03/14 12:33:11;;;;;;;2.37;1.70;;;20.50;98.00;;;;;;5095180;28;20955;-75
2024/03/14 12:35:40;;;;;;;1.90;1.70;;;20.40;98.00;;;;;;5094673;28;20556;-75
2024/03/14 12:38:09;;;;;;;2.10;1.80;;;20.50;98.00;;;;;;5094318;28;20483;-74
2024/03/14 12:40:36;;;;;;;2.10;1.80;;;20.60;98.00;;;;;;5094728;28;20476;-74
2024/03/14 12:43:06;;;;;;;2.40;2.07;;;20.70;98.00;;;;;;5094436;28;20455;-75
2024/03/14 12:45:33;;;;;;;2.23;1.70;;;20.90;98.00;;;;;;5094853;28;20529;-74
2024/03/14 12:48:01;;;;;;;2.00;1.70;;;21.00;98.00;;;;;;5094387;28;20462;-74
2024/03/14 12:50:31;;;;;;;1.67;1.60;;;21.10;98.00;;;;;;5094557;28;20451;-74
2024/03/14 12:53:03;;;;;;;1.70;1.60;;;21.20;98.00;;;;;;5094920;28;20539;-74
2024/03/14 12:55:31;;;;;;;1.80;1.60;;;21.20;98.00;;;;;;5094603;28;20997;-76
2024/03/14 12:58:00;;;;;;;1.60;1.50;;;21.20;98.00;;;;;;5094248;28;20811;-76